Dirección General De Aeronáutica Civil

Dirección Meteorológica de Chile - Servicios Climáticos

Datos de 48 Horas Recientes

Datos de una Estación Automática al minuto 00 de cada hora
Monte Patria, Municipalidad
Código Nacional
300047
Latitud
-30.69833°
Longitud
-70.95778°
Altura
406 mts.
Momento UTC Temperatura (°c) Temperatura a 3 Metros (°c) Punto de Rocio (°c) Humedad (%) Razón de Mezcla (Gr/Kg) Presión de la Estación (hPa) Presión a nivel del Mar (hPa) Viento (°/Kph) Agua Caida Acumulada Diaria (mm)
14-02-2020 23:00 28.3 . 10.4 33 8.2 963.1 1,008.5 209/12 0.0
14-02-2020 22:00 30.9 . 10.7 29 8.5 962.9 1,007.7 283/07 0.0
14-02-2020 21:00 32.0 . 10.7 27 8.4 962.9 1,007.6 225/11 0.0
14-02-2020 20:00 32.3 . 11.4 28 8.9 963.2 1,007.9 223/05 0.0
14-02-2020 19:00 32.0 . 10.5 27 8.2 963.9 1,008.7 247/12 0.0
14-02-2020 18:00 31.8 . 11.5 29 8.9 964.5 1,009.4 293/11 0.0
14-02-2020 17:00 31.6 . 11.2 29 8.8 965.1 1,010.0 222/11 0.0
14-02-2020 16:00 29.6 . 11.7 33 8.9 965.6 1,010.8 272/07 0.0
14-02-2020 15:00 26.8 . 10.5 36 8.3 966.0 1,011.7 207/11 0.0
14-02-2020 14:00 24.2 . 10.8 43 8.5 966.3 1,012.4 240/05 0.0
14-02-2020 13:00 21.1 . 11.1 53 8.6 966.6 1,013.3 261/07 0.0
14-02-2020 12:00 18.8 . 10.7 59 8.3 966.9 1,013.9 Calma 0.0
14-02-2020 11:00 14.5 . 9.9 74 7.9 966.4 1,014.2 082/01 0.0
14-02-2020 10:00 13.9 . 9.8 76 7.9 965.3 1,013.0 048/01 0.0
14-02-2020 09:00 14.5 . 9.9 74 8.0 964.6 1,012.2 Calma 0.0
14-02-2020 08:00 15.3 . 10.3 72 8.2 964.0 1,011.5 064/03 0.0
14-02-2020 07:00 15.7 . 10.2 70 8.1 964.2 1,011.5 063/01 0.0
14-02-2020 06:00 16.2 . 10.5 69 8.3 964.0 1,011.3 Calma 0.0
14-02-2020 05:00 17.1 . 10.0 63 8.0 964.1 1,011.3 Calma 0.0
14-02-2020 04:00 18.2 . 10.3 60 8.1 964.2 1,011.3 Calma 0.0
14-02-2020 03:00 19.1 . 10.3 56 8.2 964.2 1,011.0 266/05 0.0
14-02-2020 02:00 19.8 . 10.5 55 8.3 964.1 1,010.8 283/03 0.0
14-02-2020 01:00 21.8 . 10.9 50 8.5 963.6 1,010.0 240/03 0.0
14-02-2020 00:00 23.4 . 11.4 47 8.8 963.1 1,009.2 271/09 0.0
13-02-2020 23:00 27.0 . 11.9 39 9.1 962.6 1,008.1 208/18 0.0
13-02-2020 22:00 31.3 . 12.2 31 9.2 962.2 1,007.1 238/11 0.0
13-02-2020 21:00 32.2 . 12.6 30 9.5 962.2 1,006.9 253/05 0.0
13-02-2020 20:00 32.6 . 13.4 32 10.2 962.8 1,007.4 231/07 0.0
13-02-2020 19:00 32.3 . 13.7 32 10.3 963.5 1,008.2 229/12 0.0
13-02-2020 18:00 32.5 . 13.7 32 10.3 964.1 1,008.8 221/05 0.0
13-02-2020 17:00 30.3 . 13.6 36 10.2 964.8 1,009.9 218/12 0.0
13-02-2020 16:00 28.6 . 13.6 40 10.2 965.4 1,010.8 230/11 0.0
13-02-2020 15:00 25.7 . 13.6 47 10.2 966.0 1,011.8 202/07 0.0
13-02-2020 14:00 23.1 . 13.6 54 10.1 966.2 1,012.4 283/05 0.0
13-02-2020 13:00 20.0 . 13.1 65 10.0 966.2 1,013.0 302/03 0.0
13-02-2020 12:00 18.4 . 13.1 71 9.9 966.5 1,013.5 248/03 0.0
13-02-2020 11:00 15.7 . 12.0 78 9.1 966.3 1,013.8 Calma 0.0
13-02-2020 10:00 15.2 . 12.1 82 9.2 966.0 1,013.6 033/01 0.0
13-02-2020 09:00 15.7 . 12.5 81 9.4 965.8 1,013.3 311/01 0.0
13-02-2020 08:00 16.4 . 12.6 78 9.6 965.4 1,012.8 266/01 0.0
13-02-2020 07:00 16.9 . 12.9 77 9.7 965.3 1,012.6 283/03 0.0
13-02-2020 06:00 17.4 . 12.9 75 9.7 965.5 1,012.7 275/01 0.0
13-02-2020 05:00 17.8 . 13.0 73 9.8 965.4 1,012.5 276/03 0.0
13-02-2020 04:00 18.2 . 13.0 72 9.8 965.4 1,012.4 283/05 0.0
13-02-2020 03:00 18.9 . 13.1 69 9.9 965.0 1,011.9 269/03 0.0
13-02-2020 02:00 19.8 . 13.1 66 9.9 964.9 1,011.6 263/05 0.0
13-02-2020 01:00 20.9 . 13.3 62 10.0 964.3 1,010.9 274/05 0.0
13-02-2020 00:00 22.3 . 13.3 57 10.0 964.0 1,010.4 242/01 0.0
12-02-2020 23:00 24.5 . 13.7 51 10.3 963.4 1,009.3 224/09 0.0
12-02-2020 22:00 29.5 . 13.6 38 10.3 963.3 1,008.4 230/07 0.0
12-02-2020 21:00 30.9 . 14.3 36 10.5 963.8 1,008.7 279/14 0.0
12-02-2020 20:00 30.8 . 14.2 37 10.8 963.9 1,008.9 243/11 0.0
12-02-2020 19:00 30.9 . 14.3 36 10.6 964.3 1,009.3 238/24 0.0
12-02-2020 18:00 30.7 . 14.0 36 10.5 965.1 1,010.2 204/12 0.0
12-02-2020 17:00 28.7 . 14.2 40 10.3 966.0 1,011.4 239/16 0.0
12-02-2020 16:00 25.8 . 14.1 48 10.5 966.8 1,012.7 237/05 0.0
12-02-2020 15:00 22.8 . 13.9 57 10.4 968.1 1,014.5 Calma 0.0
12-02-2020 14:00 19.5 . 13.6 69 10.2 968.9 1,015.9 291/03 0.0
12-02-2020 13:00 16.8 . 13.5 81 10.1 969.0 1,016.5 275/05 0.0
12-02-2020 12:00 15.7 . 13.2 85 9.9 968.8 1,016.5 Calma 0.0
12-02-2020 11:00 15.3 . 13.3 88 10.0 968.5 1,016.2 341/01 0.0
12-02-2020 10:00 14.2 . 12.8 91 9.7 967.5 1,015.2 Calma 0.0
12-02-2020 09:00 14.3 . 12.9 91 9.7 966.6 1,014.4 249/03 0.0
12-02-2020 08:00 14.9 . 13.2 89 9.9 966.0 1,013.7 203/03 0.0
12-02-2020 07:00 15.0 . 13.1 89 9.9 966.0 1,013.6 185/01 0.0
12-02-2020 06:00 15.4 . 13.3 87 10.0 965.7 1,013.2 250/03 0.0
12-02-2020 05:00 15.7 . 13.3 85 10.0 965.8 1,013.3 251/01 0.0
12-02-2020 04:00 16.2 . 13.4 83 10.1 965.5 1,012.9 272/05 0.0
12-02-2020 03:00 17.2 . 13.5 79 10.1 965.6 1,012.8 290/01 0.0
12-02-2020 02:00 18.4 . 13.5 73 10.2 965.3 1,012.3 206/05 0.0
12-02-2020 01:00 20.0 . 13.6 66 10.2 964.9 1,011.6 245/11 0.0
12-02-2020 00:00 22.8 . 13.9 57 10.4 964.5 1,010.7 199/05 0.0

Notas

  • Los datos se encuentran en horario UTC.
  • Los datos están sin control de calidad.
  • Los datos son obtenidos directamente de la estación automática.
Requerimiento : RE5027
Excel